sensor_id;sensor_type;location;lat;lon;timestamp;temperature;humidity
9446;DHT22;4761;49.490;10.908;2022-12-18T00:01:49;14.70;36.80
9446;DHT22;4761;49.490;10.908;2022-12-18T00:04:20;14.70;36.90
9446;DHT22;4761;49.490;10.908;2022-12-18T00:06:46;14.70;36.90
9446;DHT22;4761;49.490;10.908;2022-12-18T00:09:11;14.70;36.90
9446;DHT22;4761;49.490;10.908;2022-12-18T00:11:37;14.70;36.90
9446;DHT22;4761;49.490;10.908;2022-12-18T00:14:02;14.70;36.80
9446;DHT22;4761;49.490;10.908;2022-12-18T00:16:29;14.70;36.80
9446;DHT22;4761;49.490;10.908;2022-12-18T00:18:57;14.70;36.80
9446;DHT22;4761;49.490;10.908;2022-12-18T00:21:27;14.70;36.80
9446;DHT22;4761;49.490;10.908;2022-12-18T00:23:53;14.70;36.80
9446;DHT22;4761;49.490;10.908;2022-12-18T00:26:25;14.60;36.70
9446;DHT22;4761;49.490;10.908;2022-12-18T00:28:51;14.70;36.70
9446;DHT22;4761;49.490;10.908;2022-12-18T00:31:22;14.70;36.70
9446;DHT22;4761;49.490;10.908;2022-12-18T00:33:47;14.80;36.70
9446;DHT22;4761;49.490;10.908;2022-12-18T00:36:14;14.80;36.60
9446;DHT22;4761;49.490;10.908;2022-12-18T00:38:40;14.80;36.60
9446;DHT22;4761;49.490;10.908;2022-12-18T00:41:08;14.80;36.40
9446;DHT22;4761;49.490;10.908;2022-12-18T00:43:34;14.80;36.40
9446;DHT22;4761;49.490;10.908;2022-12-18T00:45:59;14.80;36.50
9446;DHT22;4761;49.490;10.908;2022-12-18T00:48:25;14.70;36.40
9446;DHT22;4761;49.490;10.908;2022-12-18T00:50:51;14.70;36.50
9446;DHT22;4761;49.490;10.908;2022-12-18T00:53:17;14.70;36.50
9446;DHT22;4761;49.490;10.908;2022-12-18T00:55:43;14.70;36.50
9446;DHT22;4761;49.490;10.908;2022-12-18T00:58:09;14.70;36.50
9446;DHT22;4761;49.490;10.908;2022-12-18T01:00:35;14.70;36.50
9446;DHT22;4761;49.490;10.908;2022-12-18T01:03:01;14.70;36.40
9446;DHT22;4761;49.490;10.908;2022-12-18T01:05:27;14.70;36.40
9446;DHT22;4761;49.490;10.908;2022-12-18T01:07:52;14.70;36.40
9446;DHT22;4761;49.490;10.908;2022-12-18T01:10:18;14.70;36.40
9446;DHT22;4761;49.490;10.908;2022-12-18T01:12:44;14.70;36.40
9446;DHT22;4761;49.490;10.908;2022-12-18T01:15:10;14.70;36.40
9446;DHT22;4761;49.490;10.908;2022-12-18T01:17:36;14.70;36.50
9446;DHT22;4761;49.490;10.908;2022-12-18T01:20:03;14.70;36.40
9446;DHT22;4761;49.490;10.908;2022-12-18T01:22:28;14.70;36.40
9446;DHT22;4761;49.490;10.908;2022-12-18T01:24:54;14.70;36.40
9446;DHT22;4761;49.490;10.908;2022-12-18T01:27:19;14.70;36.50
9446;DHT22;4761;49.490;10.908;2022-12-18T01:29:45;14.70;36.50
9446;DHT22;4761;49.490;10.908;2022-12-18T01:32:11;14.70;36.50
9446;DHT22;4761;49.490;10.908;2022-12-18T01:34:37;14.60;36.50
9446;DHT22;4761;49.490;10.908;2022-12-18T01:37:04;14.60;36.40
9446;DHT22;4761;49.490;10.908;2022-12-18T01:39:30;14.60;36.40
9446;DHT22;4761;49.490;10.908;2022-12-18T01:41:57;14.70;36.50
9446;DHT22;4761;49.490;10.908;2022-12-18T01:44:54;14.60;36.40
9446;DHT22;4761;49.490;10.908;2022-12-18T01:50:16;14.60;36.50
9446;DHT22;4761;49.490;10.908;2022-12-18T01:52:48;14.60;36.40
9446;DHT22;4761;49.490;10.908;2022-12-18T01:55:17;14.60;36.50
9446;DHT22;4761;49.490;10.908;2022-12-18T01:57:43;14.60;36.50
9446;DHT22;4761;49.490;10.908;2022-12-18T02:00:16;14.60;36.50
9446;DHT22;4761;49.490;10.908;2022-12-18T02:02:43;14.60;36.40
9446;DHT22;4761;49.490;10.908;2022-12-18T02:05:10;14.60;36.30
9446;DHT22;4761;49.490;10.908;2022-12-18T02:07:50;14.60;36.40
9446;DHT22;4761;49.490;10.908;2022-12-18T02:10:29;14.60;36.50
9446;DHT22;4761;49.490;10.908;2022-12-18T02:15:53;14.60;36.50
9446;DHT22;4761;49.490;10.908;2022-12-18T02:18:36;14.60;36.40
9446;DHT22;4761;49.490;10.908;2022-12-18T02:21:13;14.60;36.30
9446;DHT22;4761;49.490;10.908;2022-12-18T02:26:38;14.60;36.40
9446;DHT22;4761;49.490;10.908;2022-12-18T02:29:33;14.60;36.30
9446;DHT22;4761;49.490;10.908;2022-12-18T02:32:00;14.60;36.40
9446;DHT22;4761;49.490;10.908;2022-12-18T02:34:30;14.50;36.30
9446;DHT22;4761;49.490;10.908;2022-12-18T02:36:58;14.50;36.40
9446;DHT22;4761;49.490;10.908;2022-12-18T02:39:25;14.60;36.40
9446;DHT22;4761;49.490;10.908;2022-12-18T02:41:52;14.60;36.40
9446;DHT22;4761;49.490;10.908;2022-12-18T02:44:18;14.60;36.40
9446;DHT22;4761;49.490;10.908;2022-12-18T02:46:46;14.60;36.20
9446;DHT22;4761;49.490;10.908;2022-12-18T02:52:07;14.70;36.10
9446;DHT22;4761;49.490;10.908;2022-12-18T02:57:33;14.60;36.10
9446;DHT22;4761;49.490;10.908;2022-12-18T03:00:21;14.70;36.10
9446;DHT22;4761;49.490;10.908;2022-12-18T03:02:56;14.70;36.20
9446;DHT22;4761;49.490;10.908;2022-12-18T03:05:47;14.70;36.20
9446;DHT22;4761;49.490;10.908;2022-12-18T03:08:20;14.70;36.20
9446;DHT22;4761;49.490;10.908;2022-12-18T03:13:31;14.70;36.20
9446;DHT22;4761;49.490;10.908;2022-12-18T03:15:59;14.70;36.20
9446;DHT22;4761;49.490;10.908;2022-12-18T03:18:35;14.70;36.10
9446;DHT22;4761;49.490;10.908;2022-12-18T03:21:05;14.70;36.10
9446;DHT22;4761;49.490;10.908;2022-12-18T03:23:35;14.70;36.30
9446;DHT22;4761;49.490;10.908;2022-12-18T03:26:07;14.70;36.00
9446;DHT22;4761;49.490;10.908;2022-12-18T03:28:38;14.70;36.00
9446;DHT22;4761;49.490;10.908;2022-12-18T03:31:05;14.70;36.10
9446;DHT22;4761;49.490;10.908;2022-12-18T03:33:35;14.70;36.10
9446;DHT22;4761;49.490;10.908;2022-12-18T03:36:03;14.80;36.20
9446;DHT22;4761;49.490;10.908;2022-12-18T03:38:29;14.80;36.30
9446;DHT22;4761;49.490;10.908;2022-12-18T03:41:21;14.70;36.20
9446;DHT22;4761;49.490;10.908;2022-12-18T03:44:05;14.80;36.30
9446;DHT22;4761;49.490;10.908;2022-12-18T03:49:25;14.80;36.20
9446;DHT22;4761;49.490;10.908;2022-12-18T03:52:05;14.80;36.20
9446;DHT22;4761;49.490;10.908;2022-12-18T03:54:33;14.80;36.20
9446;DHT22;4761;49.490;10.908;2022-12-18T03:57:04;14.80;36.30
9446;DHT22;4761;49.490;10.908;2022-12-18T03:59:32;14.80;36.30
9446;DHT22;4761;49.490;10.908;2022-12-18T04:02:00;14.80;36.30
9446;DHT22;4761;49.490;10.908;2022-12-18T04:04:27;14.80;36.30
9446;DHT22;4761;49.490;10.908;2022-12-18T04:06:54;14.80;36.40
9446;DHT22;4761;49.490;10.908;2022-12-18T04:09:20;14.80;36.40
9446;DHT22;4761;49.490;10.908;2022-12-18T04:11:47;14.80;36.40
9446;DHT22;4761;49.490;10.908;2022-12-18T04:14:13;14.90;36.40
9446;DHT22;4761;49.490;10.908;2022-12-18T04:16:38;14.90;36.40
9446;DHT22;4761;49.490;10.908;2022-12-18T04:19:04;14.90;36.30
9446;DHT22;4761;49.490;10.908;2022-12-18T04:21:30;14.90;36.20
9446;DHT22;4761;49.490;10.908;2022-12-18T04:23:55;14.90;36.30
9446;DHT22;4761;49.490;10.908;2022-12-18T04:26:21;14.90;36.30
9446;DHT22;4761;49.490;10.908;2022-12-18T04:28:47;14.90;36.40
9446;DHT22;4761;49.490;10.908;2022-12-18T04:31:12;14.90;36.40
9446;DHT22;4761;49.490;10.908;2022-12-18T04:33:38;14.90;36.40
9446;DHT22;4761;49.490;10.908;2022-12-18T04:36:04;14.90;36.40
9446;DHT22;4761;49.490;10.908;2022-12-18T04:38:30;14.90;36.40
9446;DHT22;4761;49.490;10.908;2022-12-18T04:40:55;14.90;36.40
9446;DHT22;4761;49.490;10.908;2022-12-18T04:43:21;14.90;36.40
9446;DHT22;4761;49.490;10.908;2022-12-18T04:45:46;15.00;36.40
9446;DHT22;4761;49.490;10.908;2022-12-18T04:48:12;15.00;36.30
9446;DHT22;4761;49.490;10.908;2022-12-18T04:50:37;15.00;36.30
9446;DHT22;4761;49.490;10.908;2022-12-18T04:53:03;15.00;36.30
9446;DHT22;4761;49.490;10.908;2022-12-18T04:55:28;15.00;36.30
9446;DHT22;4761;49.490;10.908;2022-12-18T04:57:54;15.00;36.30
9446;DHT22;4761;49.490;10.908;2022-12-18T05:00:20;15.10;36.30
9446;DHT22;4761;49.490;10.908;2022-12-18T05:02:46;15.10;36.30
9446;DHT22;4761;49.490;10.908;2022-12-18T05:05:11;15.10;36.20
9446;DHT22;4761;49.490;10.908;2022-12-18T05:07:37;15.20;36.20
9446;DHT22;4761;49.490;10.908;2022-12-18T05:10:03;15.20;36.20
9446;DHT22;4761;49.490;10.908;2022-12-18T05:12:32;15.20;36.10
9446;DHT22;4761;49.490;10.908;2022-12-18T05:14:57;15.20;36.10
9446;DHT22;4761;49.490;10.908;2022-12-18T05:17:23;15.20;36.10
9446;DHT22;4761;49.490;10.908;2022-12-18T05:19:48;15.20;36.10
9446;DHT22;4761;49.490;10.908;2022-12-18T05:22:17;15.20;36.10
9446;DHT22;4761;49.490;10.908;2022-12-18T05:24:43;15.10;36.10
9446;DHT22;4761;49.490;10.908;2022-12-18T05:27:08;15.10;36.20
9446;DHT22;4761;49.490;10.908;2022-12-18T05:29:34;15.10;36.10
9446;DHT22;4761;49.490;10.908;2022-12-18T05:31:59;15.20;36.20
9446;DHT22;4761;49.490;10.908;2022-12-18T05:34:25;15.10;36.20
9446;DHT22;4761;49.490;10.908;2022-12-18T05:36:50;15.10;36.30
9446;DHT22;4761;49.490;10.908;2022-12-18T05:39:16;15.20;36.40
9446;DHT22;4761;49.490;10.908;2022-12-18T05:41:41;15.10;36.60
9446;DHT22;4761;49.490;10.908;2022-12-18T05:44:07;15.10;36.40
9446;DHT22;4761;49.490;10.908;2022-12-18T05:46:32;15.10;36.40
9446;DHT22;4761;49.490;10.908;2022-12-18T05:49:01;15.10;36.30
9446;DHT22;4761;49.490;10.908;2022-12-18T05:51:26;15.20;36.40
9446;DHT22;4761;49.490;10.908;2022-12-18T05:53:52;15.20;36.40
9446;DHT22;4761;49.490;10.908;2022-12-18T05:56:20;15.20;36.40
9446;DHT22;4761;49.490;10.908;2022-12-18T05:58:46;15.10;36.40
9446;DHT22;4761;49.490;10.908;2022-12-18T06:01:21;15.10;36.50
9446;DHT22;4761;49.490;10.908;2022-12-18T06:03:47;15.10;36.40
9446;DHT22;4761;49.490;10.908;2022-12-18T06:06:17;15.10;36.50
9446;DHT22;4761;49.490;10.908;2022-12-18T06:08:43;15.10;36.50
9446;DHT22;4761;49.490;10.908;2022-12-18T06:11:09;15.10;36.50
9446;DHT22;4761;49.490;10.908;2022-12-18T06:13:34;15.20;36.60
9446;DHT22;4761;49.490;10.908;2022-12-18T06:16:03;15.20;36.60
9446;DHT22;4761;49.490;10.908;2022-12-18T06:18:28;15.10;36.40
9446;DHT22;4761;49.490;10.908;2022-12-18T06:20:58;15.20;36.50
9446;DHT22;4761;49.490;10.908;2022-12-18T06:23:24;15.20;36.40
9446;DHT22;4761;49.490;10.908;2022-12-18T06:25:49;15.20;36.40
9446;DHT22;4761;49.490;10.908;2022-12-18T06:28:15;15.20;36.40
9446;DHT22;4761;49.490;10.908;2022-12-18T06:30:44;15.20;36.40
9446;DHT22;4761;49.490;10.908;2022-12-18T06:33:09;15.10;36.30
9446;DHT22;4761;49.490;10.908;2022-12-18T06:35:35;15.10;36.40
9446;DHT22;4761;49.490;10.908;2022-12-18T06:38:01;15.10;36.40
9446;DHT22;4761;49.490;10.908;2022-12-18T06:40:27;15.20;36.40
9446;DHT22;4761;49.490;10.908;2022-12-18T06:42:52;15.20;36.50
9446;DHT22;4761;49.490;10.908;2022-12-18T06:45:18;15.20;36.40
9446;DHT22;4761;49.490;10.908;2022-12-18T06:47:43;15.20;36.40
9446;DHT22;4761;49.490;10.908;2022-12-18T06:50:09;15.20;36.30
9446;DHT22;4761;49.490;10.908;2022-12-18T06:52:35;15.20;36.20
9446;DHT22;4761;49.490;10.908;2022-12-18T06:55:02;15.30;36.30
9446;DHT22;4761;49.490;10.908;2022-12-18T06:57:28;15.20;36.20
9446;DHT22;4761;49.490;10.908;2022-12-18T06:59:53;15.20;36.30
9446;DHT22;4761;49.490;10.908;2022-12-18T07:02:19;15.20;36.40
9446;DHT22;4761;49.490;10.908;2022-12-18T07:04:45;15.10;36.40
9446;DHT22;4761;49.490;10.908;2022-12-18T07:07:10;15.20;36.50
9446;DHT22;4761;49.490;10.908;2022-12-18T07:09:36;15.20;36.50
9446;DHT22;4761;49.490;10.908;2022-12-18T07:12:01;15.00;29.80
9446;DHT22;4761;49.490;10.908;2022-12-18T07:14:27;14.80;27.90
9446;DHT22;4761;49.490;10.908;2022-12-18T07:16:52;14.70;27.40
9446;DHT22;4761;49.490;10.908;2022-12-18T07:19:18;14.70;27.20
9446;DHT22;4761;49.490;10.908;2022-12-18T07:21:43;14.70;26.80
9446;DHT22;4761;49.490;10.908;2022-12-18T07:24:09;14.80;26.40
9446;DHT22;4761;49.490;10.908;2022-12-18T07:26:34;14.90;26.00
9446;DHT22;4761;49.490;10.908;2022-12-18T07:29:00;15.00;25.50
9446;DHT22;4761;49.490;10.908;2022-12-18T07:31:26;15.10;25.20
9446;DHT22;4761;49.490;10.908;2022-12-18T07:33:52;15.20;25.30
9446;DHT22;4761;49.490;10.908;2022-12-18T07:36:18;15.30;24.50
9446;DHT22;4761;49.490;10.908;2022-12-18T07:38:47;15.40;24.30
9446;DHT22;4761;49.490;10.908;2022-12-18T07:41:13;15.50;24.10
9446;DHT22;4761;49.490;10.908;2022-12-18T07:43:40;15.60;23.90
9446;DHT22;4761;49.490;10.908;2022-12-18T07:46:06;15.60;23.80
9446;DHT22;4761;49.490;10.908;2022-12-18T07:48:32;15.70;23.50
9446;DHT22;4761;49.490;10.908;2022-12-18T07:51:02;15.80;23.60
9446;DHT22;4761;49.490;10.908;2022-12-18T07:53:29;15.80;23.40
9446;DHT22;4761;49.490;10.908;2022-12-18T07:56:00;15.90;23.40
9446;DHT22;4761;49.490;10.908;2022-12-18T07:58:26;16.00;23.30
9446;DHT22;4761;49.490;10.908;2022-12-18T08:00:52;16.00;23.20
9446;DHT22;4761;49.490;10.908;2022-12-18T08:03:18;16.10;23.20
9446;DHT22;4761;49.490;10.908;2022-12-18T08:05:44;16.10;23.10
9446;DHT22;4761;49.490;10.908;2022-12-18T08:08:10;16.10;23.00
9446;DHT22;4761;49.490;10.908;2022-12-18T08:10:37;16.10;23.00
9446;DHT22;4761;49.490;10.908;2022-12-18T08:13:02;16.20;23.00
9446;DHT22;4761;49.490;10.908;2022-12-18T08:15:28;16.20;23.00
9446;DHT22;4761;49.490;10.908;2022-12-18T08:17:56;16.20;23.00
9446;DHT22;4761;49.490;10.908;2022-12-18T08:20:22;16.30;23.00
9446;DHT22;4761;49.490;10.908;2022-12-18T08:22:47;16.30;23.00
9446;DHT22;4761;49.490;10.908;2022-12-18T08:25:13;16.30;23.00
9446;DHT22;4761;49.490;10.908;2022-12-18T08:27:38;16.30;23.10
9446;DHT22;4761;49.490;10.908;2022-12-18T08:30:04;16.30;23.10
9446;DHT22;4761;49.490;10.908;2022-12-18T08:32:30;16.40;23.10
9446;DHT22;4761;49.490;10.908;2022-12-18T08:34:55;16.40;23.20
9446;DHT22;4761;49.490;10.908;2022-12-18T08:37:21;16.40;23.20
9446;DHT22;4761;49.490;10.908;2022-12-18T08:39:46;16.40;23.30
9446;DHT22;4761;49.490;10.908;2022-12-18T08:42:12;16.40;23.30
9446;DHT22;4761;49.490;10.908;2022-12-18T08:44:56;16.40;23.40
9446;DHT22;4761;49.490;10.908;2022-12-18T08:47:22;16.40;23.50
9446;DHT22;4761;49.490;10.908;2022-12-18T08:49:47;16.40;23.50
9446;DHT22;4761;49.490;10.908;2022-12-18T08:52:16;16.40;23.60
9446;DHT22;4761;49.490;10.908;2022-12-18T08:54:41;16.40;23.60
9446;DHT22;4761;49.490;10.908;2022-12-18T08:57:07;16.40;23.70
9446;DHT22;4761;49.490;10.908;2022-12-18T08:59:32;16.40;23.70
9446;DHT22;4761;49.490;10.908;2022-12-18T09:01:58;16.50;23.80
9446;DHT22;4761;49.490;10.908;2022-12-18T09:04:23;16.70;32.00
9446;DHT22;4761;49.490;10.908;2022-12-18T09:06:49;16.60;32.40
9446;DHT22;4761;49.490;10.908;2022-12-18T09:09:14;16.50;32.70
9446;DHT22;4761;49.490;10.908;2022-12-18T09:11:40;16.30;32.90
9446;DHT22;4761;49.490;10.908;2022-12-18T09:14:06;16.20;33.20
9446;DHT22;4761;49.490;10.908;2022-12-18T09:16:32;16.10;33.40
9446;DHT22;4761;49.490;10.908;2022-12-18T09:19:00;16.00;33.80
9446;DHT22;4761;49.490;10.908;2022-12-18T09:21:29;15.90;34.00
9446;DHT22;4761;49.490;10.908;2022-12-18T09:23:55;15.90;34.20
9446;DHT22;4761;49.490;10.908;2022-12-18T09:26:23;15.80;34.20
9446;DHT22;4761;49.490;10.908;2022-12-18T09:28:49;15.70;34.40
9446;DHT22;4761;49.490;10.908;2022-12-18T09:31:15;15.70;34.50
9446;DHT22;4761;49.490;10.908;2022-12-18T09:33:41;15.70;34.70
9446;DHT22;4761;49.490;10.908;2022-12-18T09:36:09;15.70;35.40
9446;DHT22;4761;49.490;10.908;2022-12-18T09:38:35;15.60;34.80
9446;DHT22;4761;49.490;10.908;2022-12-18T09:43:51;15.50;34.80
9446;DHT22;4761;49.490;10.908;2022-12-18T09:46:28;15.50;35.00
9446;DHT22;4761;49.490;10.908;2022-12-18T09:48:59;15.40;35.00
9446;DHT22;4761;49.490;10.908;2022-12-18T09:51:30;15.50;35.10
9446;DHT22;4761;49.490;10.908;2022-12-18T09:54:07;15.40;35.10
9446;DHT22;4761;49.490;10.908;2022-12-18T09:56:41;15.40;35.10
9446;DHT22;4761;49.490;10.908;2022-12-18T09:59:21;15.40;35.20
9446;DHT22;4761;49.490;10.908;2022-12-18T10:01:48;15.40;35.20
9446;DHT22;4761;49.490;10.908;2022-12-18T10:04:13;15.30;35.10
9446;DHT22;4761;49.490;10.908;2022-12-18T10:09:26;15.30;35.20
9446;DHT22;4761;49.490;10.908;2022-12-18T10:17:41;15.30;35.30
9446;DHT22;4761;49.490;10.908;2022-12-18T10:23:15;15.30;35.30
9446;DHT22;4761;49.490;10.908;2022-12-18T10:26:14;15.30;35.40
9446;DHT22;4761;49.490;10.908;2022-12-18T10:28:40;15.30;35.40
9446;DHT22;4761;49.490;10.908;2022-12-18T10:31:26;15.30;35.50
9446;DHT22;4761;49.490;10.908;2022-12-18T10:33:55;15.30;35.50
9446;DHT22;4761;49.490;10.908;2022-12-18T10:36:22;15.30;35.50
9446;DHT22;4761;49.490;10.908;2022-12-18T10:38:48;15.30;35.50
9446;DHT22;4761;49.490;10.908;2022-12-18T10:46:42;15.30;35.40
9446;DHT22;4761;49.490;10.908;2022-12-18T10:49:19;15.30;35.40
9446;DHT22;4761;49.490;10.908;2022-12-18T10:51:46;15.30;35.40
9446;DHT22;4761;49.490;10.908;2022-12-18T10:54:21;15.30;35.40
9446;DHT22;4761;49.490;10.908;2022-12-18T10:56:47;15.30;35.40
9446;DHT22;4761;49.490;10.908;2022-12-18T10:59:15;15.30;35.40
9446;DHT22;4761;49.490;10.908;2022-12-18T11:01:48;15.30;35.50
9446;DHT22;4761;49.490;10.908;2022-12-18T11:04:21;15.30;35.40
9446;DHT22;4761;49.490;10.908;2022-12-18T11:07:01;15.30;35.50
9446;DHT22;4761;49.490;10.908;2022-12-18T11:11:58;15.30;35.40
9446;DHT22;4761;49.490;10.908;2022-12-18T11:14:33;15.40;35.40
9446;DHT22;4761;49.490;10.908;2022-12-18T11:17:00;15.30;35.30
9446;DHT22;4761;49.490;10.908;2022-12-18T11:22:00;15.30;35.40
9446;DHT22;4761;49.490;10.908;2022-12-18T11:26:56;15.30;36.00
9446;DHT22;4761;49.490;10.908;2022-12-18T11:29:49;15.30;35.40
9446;DHT22;4761;49.490;10.908;2022-12-18T11:34:50;15.30;35.40
9446;DHT22;4761;49.490;10.908;2022-12-18T11:37:18;15.30;35.30
9446;DHT22;4761;49.490;10.908;2022-12-18T11:39:53;15.30;35.30
9446;DHT22;4761;49.490;10.908;2022-12-18T11:47:56;15.30;35.40
9446;DHT22;4761;49.490;10.908;2022-12-18T11:52:58;15.30;35.30
9446;DHT22;4761;49.490;10.908;2022-12-18T12:00:44;15.30;35.30
9446;DHT22;4761;49.490;10.908;2022-12-18T12:08:54;15.30;35.30
9446;DHT22;4761;49.490;10.908;2022-12-18T12:23:04;15.30;35.20
9446;DHT22;4761;49.490;10.908;2022-12-18T12:25:40;15.30;35.20
9446;DHT22;4761;49.490;10.908;2022-12-18T12:28:36;15.30;35.30
9446;DHT22;4761;49.490;10.908;2022-12-18T12:31:20;15.30;35.30
9446;DHT22;4761;49.490;10.908;2022-12-18T12:34:13;15.30;35.40
9446;DHT22;4761;49.490;10.908;2022-12-18T12:37:09;15.30;35.40
9446;DHT22;4761;49.490;10.908;2022-12-18T12:39:40;15.30;35.40
9446;DHT22;4761;49.490;10.908;2022-12-18T12:42:31;15.30;35.30
9446;DHT22;4761;49.490;10.908;2022-12-18T12:45:25;15.30;35.30
9446;DHT22;4761;49.490;10.908;2022-12-18T12:47:54;15.30;35.40
9446;DHT22;4761;49.490;10.908;2022-12-18T12:50:21;15.30;35.30
9446;DHT22;4761;49.490;10.908;2022-12-18T12:52:53;15.30;35.30
9446;DHT22;4761;49.490;10.908;2022-12-18T12:55:25;15.40;35.40
9446;DHT22;4761;49.490;10.908;2022-12-18T12:57:59;15.30;35.20
9446;DHT22;4761;49.490;10.908;2022-12-18T13:00:31;15.30;35.20
9446;DHT22;4761;49.490;10.908;2022-12-18T13:03:15;15.30;35.20
9446;DHT22;4761;49.490;10.908;2022-12-18T13:10:49;15.00;28.00
9446;DHT22;4761;49.490;10.908;2022-12-18T13:13:52;15.00;27.90
9446;DHT22;4761;49.490;10.908;2022-12-18T13:16:20;15.10;27.70
9446;DHT22;4761;49.490;10.908;2022-12-18T13:18:51;15.20;27.40
9446;DHT22;4761;49.490;10.908;2022-12-18T13:21:23;15.30;27.20
9446;DHT22;4761;49.490;10.908;2022-12-18T13:23:50;15.40;27.00
9446;DHT22;4761;49.490;10.908;2022-12-18T13:34:19;15.80;26.60
9446;DHT22;4761;49.490;10.908;2022-12-18T13:36:45;15.80;25.90
9446;DHT22;4761;49.490;10.908;2022-12-18T13:41:41;16.00;25.50
9446;DHT22;4761;49.490;10.908;2022-12-18T13:46:50;16.20;25.30
9446;DHT22;4761;49.490;10.908;2022-12-18T13:49:20;16.20;25.10
9446;DHT22;4761;49.490;10.908;2022-12-18T13:51:49;16.20;24.90
9446;DHT22;4761;49.490;10.908;2022-12-18T13:54:19;16.30;24.80
9446;DHT22;4761;49.490;10.908;2022-12-18T13:56:47;16.30;24.70
9446;DHT22;4761;49.490;10.908;2022-12-18T14:01:52;16.40;24.50
9446;DHT22;4761;49.490;10.908;2022-12-18T14:04:21;16.50;24.50
9446;DHT22;4761;49.490;10.908;2022-12-18T14:06:50;16.50;24.40
9446;DHT22;4761;49.490;10.908;2022-12-18T14:09:21;16.50;24.30
9446;DHT22;4761;49.490;10.908;2022-12-18T14:11:50;16.50;24.20
9446;DHT22;4761;49.490;10.908;2022-12-18T14:14:17;16.60;24.20
9446;DHT22;4761;49.490;10.908;2022-12-18T14:16:43;16.50;24.10
9446;DHT22;4761;49.490;10.908;2022-12-18T14:19:15;16.60;24.10
9446;DHT22;4761;49.490;10.908;2022-12-18T14:21:46;16.60;24.10
9446;DHT22;4761;49.490;10.908;2022-12-18T14:24:18;16.60;24.10
9446;DHT22;4761;49.490;10.908;2022-12-18T14:26:44;16.60;24.00
9446;DHT22;4761;49.490;10.908;2022-12-18T14:29:23;16.60;24.00
9446;DHT22;4761;49.490;10.908;2022-12-18T14:32:11;16.70;24.00
9446;DHT22;4761;49.490;10.908;2022-12-18T14:34:39;16.60;23.90
9446;DHT22;4761;49.490;10.908;2022-12-18T14:37:05;16.60;23.90
9446;DHT22;4761;49.490;10.908;2022-12-18T14:39:33;16.60;23.80
9446;DHT22;4761;49.490;10.908;2022-12-18T14:41:59;16.60;23.80
9446;DHT22;4761;49.490;10.908;2022-12-18T14:44:24;16.70;23.80
9446;DHT22;4761;49.490;10.908;2022-12-18T14:46:50;16.90;23.60
9446;DHT22;4761;49.490;10.908;2022-12-18T14:49:33;16.80;23.50
9446;DHT22;4761;49.490;10.908;2022-12-18T14:52:05;16.80;23.50
9446;DHT22;4761;49.490;10.908;2022-12-18T14:54:32;16.80;23.60
9446;DHT22;4761;49.490;10.908;2022-12-18T14:59:39;16.70;23.40
9446;DHT22;4761;49.490;10.908;2022-12-18T15:02:25;16.70;23.50
9446;DHT22;4761;49.490;10.908;2022-12-18T15:07:58;16.80;32.40
9446;DHT22;4761;49.490;10.908;2022-12-18T15:10:30;16.60;32.70
9446;DHT22;4761;49.490;10.908;2022-12-18T15:20:41;16.00;33.70
9446;DHT22;4761;49.490;10.908;2022-12-18T15:23:17;15.90;34.00
9446;DHT22;4761;49.490;10.908;2022-12-18T15:25:44;15.80;34.10
9446;DHT22;4761;49.490;10.908;2022-12-18T15:31:01;15.70;34.30
9446;DHT22;4761;49.490;10.908;2022-12-18T15:33:32;15.70;34.50
9446;DHT22;4761;49.490;10.908;2022-12-18T15:36:03;15.60;34.60
9446;DHT22;4761;49.490;10.908;2022-12-18T15:38:30;15.60;34.60
9446;DHT22;4761;49.490;10.908;2022-12-18T15:40:57;15.60;34.70
9446;DHT22;4761;49.490;10.908;2022-12-18T15:43:23;15.60;34.70
9446;DHT22;4761;49.490;10.908;2022-12-18T15:48:27;15.50;34.80
9446;DHT22;4761;49.490;10.908;2022-12-18T15:50:54;15.50;34.90
9446;DHT22;4761;49.490;10.908;2022-12-18T15:53:25;15.50;35.00
9446;DHT22;4761;49.490;10.908;2022-12-18T15:55:52;15.50;35.10
9446;DHT22;4761;49.490;10.908;2022-12-18T15:58:36;15.50;35.00
9446;DHT22;4761;49.490;10.908;2022-12-18T16:01:02;15.40;35.00
9446;DHT22;4761;49.490;10.908;2022-12-18T16:03:27;15.40;35.00
9446;DHT22;4761;49.490;10.908;2022-12-18T16:05:53;15.40;35.10
9446;DHT22;4761;49.490;10.908;2022-12-18T16:08:19;15.40;35.00
9446;DHT22;4761;49.490;10.908;2022-12-18T16:10:45;15.40;35.00
9446;DHT22;4761;49.490;10.908;2022-12-18T16:13:12;15.40;35.00
9446;DHT22;4761;49.490;10.908;2022-12-18T16:15:39;15.40;35.10
9446;DHT22;4761;49.490;10.908;2022-12-18T16:18:04;15.30;35.00
9446;DHT22;4761;49.490;10.908;2022-12-18T16:20:30;15.30;35.00
9446;DHT22;4761;49.490;10.908;2022-12-18T16:22:56;15.40;35.10
9446;DHT22;4761;49.490;10.908;2022-12-18T16:25:24;15.30;35.00
9446;DHT22;4761;49.490;10.908;2022-12-18T16:27:51;15.30;35.00
9446;DHT22;4761;49.490;10.908;2022-12-18T16:30:20;15.30;35.00
9446;DHT22;4761;49.490;10.908;2022-12-18T16:32:46;15.40;35.10
9446;DHT22;4761;49.490;10.908;2022-12-18T16:35:13;15.40;35.10
9446;DHT22;4761;49.490;10.908;2022-12-18T16:37:40;15.30;35.00
9446;DHT22;4761;49.490;10.908;2022-12-18T16:40:08;15.40;35.10
9446;DHT22;4761;49.490;10.908;2022-12-18T16:42:35;15.30;35.00
9446;DHT22;4761;49.490;10.908;2022-12-18T16:45:02;15.30;35.00
9446;DHT22;4761;49.490;10.908;2022-12-18T16:47:28;15.30;35.00
9446;DHT22;4761;49.490;10.908;2022-12-18T16:49:53;15.30;35.10
9446;DHT22;4761;49.490;10.908;2022-12-18T16:52:19;15.30;35.00
9446;DHT22;4761;49.490;10.908;2022-12-18T16:54:45;15.30;35.00
9446;DHT22;4761;49.490;10.908;2022-12-18T16:57:13;15.30;35.10
9446;DHT22;4761;49.490;10.908;2022-12-18T16:59:39;15.30;35.00
9446;DHT22;4761;49.490;10.908;2022-12-18T17:02:05;15.30;35.00
9446;DHT22;4761;49.490;10.908;2022-12-18T17:04:31;15.30;35.00
9446;DHT22;4761;49.490;10.908;2022-12-18T17:06:56;15.30;35.00
9446;DHT22;4761;49.490;10.908;2022-12-18T17:09:22;15.30;35.00
9446;DHT22;4761;49.490;10.908;2022-12-18T17:11:49;15.30;35.60
9446;DHT22;4761;49.490;10.908;2022-12-18T17:14:17;15.30;34.90
9446;DHT22;4761;49.490;10.908;2022-12-18T17:16:43;15.30;35.00
9446;DHT22;4761;49.490;10.908;2022-12-18T17:19:10;15.40;35.10
9446;DHT22;4761;49.490;10.908;2022-12-18T17:21:35;15.30;35.00
9446;DHT22;4761;49.490;10.908;2022-12-18T17:24:02;15.40;35.10
9446;DHT22;4761;49.490;10.908;2022-12-18T17:26:28;15.40;35.00
9446;DHT22;4761;49.490;10.908;2022-12-18T17:28:55;15.40;35.00
9446;DHT22;4761;49.490;10.908;2022-12-18T17:31:23;15.50;35.10
9446;DHT22;4761;49.490;10.908;2022-12-18T17:33:50;15.50;35.00
9446;DHT22;4761;49.490;10.908;2022-12-18T17:36:16;15.50;34.90
9446;DHT22;4761;49.490;10.908;2022-12-18T17:38:42;15.40;34.80
9446;DHT22;4761;49.490;10.908;2022-12-18T17:41:10;15.40;34.90
9446;DHT22;4761;49.490;10.908;2022-12-18T17:43:36;15.40;34.90
9446;DHT22;4761;49.490;10.908;2022-12-18T17:46:05;15.40;34.90
9446;DHT22;4761;49.490;10.908;2022-12-18T17:48:31;15.40;34.90
9446;DHT22;4761;49.490;10.908;2022-12-18T17:51:01;15.40;35.00
9446;DHT22;4761;49.490;10.908;2022-12-18T17:53:27;15.40;35.00
9446;DHT22;4761;49.490;10.908;2022-12-18T17:55:54;15.30;35.00